createdAt,value
2023-08-30T00:01:28.821Z,98191.19
2023-08-30T00:03:56.092Z,98200.88
2023-08-30T00:06:22.984Z,98192.78
2023-08-30T00:08:50.733Z,98183.13
2023-08-30T00:11:17.565Z,98191.13
2023-08-30T00:13:44.612Z,98178.91
2023-08-30T00:16:11.588Z,98188.75
2023-08-30T00:18:38.763Z,98188.75
2023-08-30T00:21:05.615Z,98187.44
2023-08-30T00:23:32.471Z,98183.50
2023-08-30T00:25:59.428Z,98180.72
2023-08-30T00:28:26.320Z,98159.16
2023-08-30T00:30:56.301Z,98169.63
2023-08-30T00:33:23.439Z,98175.06
2023-08-30T00:35:59.860Z,98162.91
2023-08-30T00:38:30.767Z,98164.50
2023-08-30T00:40:57.883Z,98181.50
2023-08-30T00:43:25.788Z,98179.97
2023-08-30T00:45:53.346Z,98180.41
2023-08-30T00:48:21.928Z,98181.91
2023-08-30T00:50:49.360Z,98171.53
2023-08-30T00:53:16.421Z,98182.91
2023-08-30T00:55:44.696Z,98178.84
2023-08-30T00:58:12.532Z,98165.94
2023-08-30T01:00:40.671Z,98155.81
2023-08-30T01:03:11.188Z,98164.47
2023-08-30T01:05:38.276Z,98181.00
2023-08-30T01:08:05.913Z,98147.00
2023-08-30T01:10:52.281Z,98173.28
2023-08-30T01:13:21.752Z,98184.44
2023-08-30T01:15:50.149Z,98182.09
2023-08-30T01:18:23.020Z,98172.66
2023-08-30T01:20:52.800Z,98185.06
2023-08-30T01:23:50.748Z,98192.97
2023-08-30T01:26:42.035Z,98179.72
2023-08-30T01:29:12.665Z,98195.16
2023-08-30T01:31:42.023Z,98189.09
2023-08-30T01:34:10.000Z,98185.41
2023-08-30T01:36:38.024Z,98188.16
2023-08-30T01:39:06.381Z,98190.38
2023-08-30T01:41:36.725Z,98191.38
2023-08-30T01:44:06.028Z,98172.38
2023-08-30T01:46:35.046Z,98171.78
2023-08-30T01:49:04.799Z,98168.78
2023-08-30T01:51:32.956Z,98148.63
2023-08-30T01:54:03.460Z,98207.66
2023-08-30T01:56:30.521Z,98194.19
2023-08-30T01:58:57.791Z,98197.63
2023-08-30T02:01:24.924Z,98200.44
2023-08-30T02:03:53.038Z,98175.63
2023-08-30T02:06:30.716Z,98192.59
2023-08-30T02:09:05.991Z,98192.06
2023-08-30T02:11:37.471Z,98193.22
2023-08-30T02:14:08.958Z,98203.22
2023-08-30T02:16:37.848Z,98197.53
2023-08-30T02:19:05.429Z,98203.34
2023-08-30T02:21:32.641Z,98209.38
2023-08-30T02:23:59.742Z,98204.31
2023-08-30T02:26:26.608Z,98202.78
2023-08-30T02:28:53.830Z,98191.78
2023-08-30T02:31:20.943Z,98183.09
2023-08-30T02:33:48.000Z,98191.88
2023-08-30T02:36:15.398Z,98195.00
2023-08-30T02:38:42.546Z,98171.19
2023-08-30T02:41:11.365Z,98190.25
2023-08-30T02:43:38.992Z,98188.22
2023-08-30T02:46:06.684Z,98196.22
2023-08-30T02:48:34.750Z,98188.03
2023-08-30T02:51:02.023Z,98197.50
2023-08-30T02:53:29.230Z,98196.69
2023-08-30T02:55:57.069Z,98177.69
2023-08-30T02:58:24.714Z,98205.16
2023-08-30T03:00:57.334Z,98207.38
2023-08-30T03:03:24.253Z,98213.72
2023-08-30T03:05:51.406Z,98202.56
2023-08-30T03:08:18.428Z,98199.06
2023-08-30T03:10:45.634Z,98219.00
2023-08-30T03:13:13.501Z,98219.75
2023-08-30T03:15:40.659Z,98217.03
2023-08-30T03:18:09.255Z,98208.94
2023-08-30T03:20:37.041Z,98216.53
2023-08-30T03:23:04.482Z,98179.44
2023-08-30T03:25:33.894Z,98229.56
2023-08-30T03:28:00.861Z,98234.38
2023-08-30T03:30:27.869Z,98222.00
2023-08-30T03:32:55.763Z,98222.00
2023-08-30T03:35:23.040Z,98215.19
2023-08-30T03:37:51.509Z,98207.19
2023-08-30T03:40:18.675Z,98228.63
2023-08-30T03:42:45.673Z,98240.69
2023-08-30T03:45:12.957Z,98204.50
2023-08-30T03:47:40.381Z,98207.66
2023-08-30T03:50:08.152Z,98234.34
2023-08-30T03:52:36.306Z,98223.09
2023-08-30T03:55:04.058Z,98209.63
2023-08-30T03:57:31.512Z,98231.03
2023-08-30T03:59:58.343Z,98227.56
2023-08-30T04:02:25.562Z,98240.69
2023-08-30T04:04:52.568Z,98238.16
2023-08-30T04:07:19.567Z,98233.59
2023-08-30T04:09:46.513Z,98239.41
2023-08-30T04:12:13.611Z,98225.75
2023-08-30T04:14:40.730Z,98238.00
2023-08-30T04:17:07.579Z,98239.19
2023-08-30T04:19:35.270Z,98247.84
2023-08-30T04:22:02.514Z,98232.75
2023-08-30T04:24:30.155Z,98234.34
2023-08-30T04:26:57.025Z,98253.03
2023-08-30T04:29:24.069Z,98251.34
2023-08-30T04:31:51.014Z,98250.97
2023-08-30T04:34:18.204Z,98248.91
2023-08-30T04:36:45.798Z,98244.38
2023-08-30T04:39:14.995Z,98238.28
2023-08-30T04:41:42.643Z,98248.06
2023-08-30T04:44:10.174Z,98232.50
2023-08-30T04:46:37.122Z,98253.56
2023-08-30T04:49:04.869Z,98239.44
2023-08-30T04:51:33.258Z,98248.84
2023-08-30T04:54:00.290Z,98264.59
2023-08-30T04:56:27.417Z,98266.47
2023-08-30T04:58:54.583Z,98273.53
2023-08-30T05:01:21.822Z,98272.25
2023-08-30T05:03:52.212Z,98272.59
2023-08-30T05:06:20.145Z,98270.50
2023-08-30T05:08:47.134Z,98278.00
2023-08-30T05:11:14.371Z,98285.16
2023-08-30T05:13:42.161Z,98280.75
2023-08-30T05:16:09.225Z,98284.34
2023-08-30T05:18:36.441Z,98287.53
2023-08-30T05:21:06.161Z,98298.59
2023-08-30T05:23:33.529Z,98294.50
2023-08-30T05:26:00.511Z,98299.09
2023-08-30T05:28:27.419Z,98286.69
2023-08-30T05:30:54.515Z,98304.41
2023-08-30T05:33:50.485Z,98309.44
2023-08-30T05:36:49.331Z,98311.09
2023-08-30T05:39:28.235Z,98319.41
2023-08-30T05:41:57.832Z,98311.25
2023-08-30T05:44:25.068Z,98309.78
2023-08-30T05:46:52.318Z,98301.34
2023-08-30T05:49:19.214Z,98298.38
2023-08-30T05:51:46.719Z,98309.00
2023-08-30T05:54:14.299Z,98301.94
2023-08-30T05:56:41.393Z,98317.97
2023-08-30T05:59:09.118Z,98323.69
2023-08-30T06:01:36.721Z,98316.66
2023-08-30T06:04:05.674Z,98323.53
2023-08-30T06:06:32.600Z,98327.84
2023-08-30T06:09:00.359Z,98331.88
2023-08-30T06:11:27.791Z,98331.88
2023-08-30T06:13:54.815Z,98324.41
2023-08-30T06:16:22.191Z,98316.38
2023-08-30T06:18:49.122Z,98294.66
2023-08-30T06:21:16.351Z,98329.78
2023-08-30T06:23:43.189Z,98330.09
2023-08-30T06:26:10.256Z,98333.06
2023-08-30T06:28:38.780Z,98324.09
2023-08-30T06:31:06.032Z,98298.81
2023-08-30T06:33:33.068Z,98314.13
2023-08-30T06:36:00.228Z,98320.69
2023-08-30T06:38:27.354Z,98322.34
2023-08-30T06:40:55.020Z,98316.06
2023-08-30T06:43:22.077Z,98329.00
2023-08-30T06:45:49.176Z,98321.88
2023-08-30T06:48:16.375Z,98332.88
2023-08-30T06:50:43.586Z,98319.81
2023-08-30T06:53:10.550Z,98327.41
2023-08-30T06:55:38.882Z,98322.81
2023-08-30T06:58:06.274Z,98327.75
2023-08-30T07:00:33.638Z,98323.69
2023-08-30T07:03:00.799Z,98338.50
2023-08-30T07:05:27.981Z,98332.50
2023-08-30T07:07:54.835Z,98326.06
2023-08-30T07:10:21.818Z,98326.03
2023-08-30T07:12:50.148Z,98333.38
2023-08-30T07:15:18.361Z,98323.78
2023-08-30T07:17:52.799Z,98313.72
2023-08-30T07:20:22.036Z,98327.63
2023-08-30T07:22:49.042Z,98326.03
2023-08-30T07:25:15.919Z,98322.88
2023-08-30T07:27:43.062Z,98293.06
2023-08-30T07:30:10.491Z,98318.81
2023-08-30T07:32:39.365Z,98314.81
2023-08-30T07:35:07.013Z,98302.19
2023-08-30T07:37:34.149Z,98312.91
2023-08-30T07:40:01.143Z,98319.66
2023-08-30T07:42:28.277Z,98296.97
2023-08-30T07:44:55.469Z,98324.84
2023-08-30T07:47:22.590Z,98316.22
2023-08-30T07:49:49.518Z,98315.53
2023-08-30T07:52:16.843Z,98315.53
2023-08-30T07:54:45.402Z,98313.03
2023-08-30T07:57:12.978Z,98313.84
2023-08-30T07:59:40.108Z,98313.34
2023-08-30T08:02:09.027Z,98313.72
2023-08-30T08:04:36.887Z,98315.25
2023-08-30T08:07:06.019Z,98303.25
2023-08-30T08:09:33.666Z,98306.69
2023-08-30T08:12:01.236Z,98288.59
2023-08-30T08:14:28.577Z,98307.25
2023-08-30T08:16:56.016Z,98309.66
2023-08-30T08:19:26.019Z,98308.13
2023-08-30T08:21:56.286Z,98297.03
2023-08-30T08:24:23.427Z,98290.19
2023-08-30T08:26:50.361Z,98302.09
2023-08-30T08:29:17.431Z,98294.41
2023-08-30T08:31:44.489Z,98295.97
2023-08-30T08:34:13.396Z,98301.69
2023-08-30T08:36:41.385Z,98317.59
2023-08-30T08:39:08.793Z,98299.00
2023-08-30T08:41:45.493Z,98301.06
2023-08-30T08:44:14.189Z,98302.00
2023-08-30T08:46:42.645Z,98291.28
2023-08-30T08:49:17.837Z,98288.91
2023-08-30T08:51:46.229Z,98285.94
2023-08-30T08:54:14.450Z,98287.69
2023-08-30T08:56:41.940Z,98284.72
2023-08-30T08:59:10.118Z,98263.41
2023-08-30T09:01:37.861Z,98279.06
2023-08-30T09:04:09.382Z,98276.38
2023-08-30T09:06:37.401Z,98272.44
2023-08-30T09:09:05.798Z,98244.09
2023-08-30T09:14:03.784Z,98263.63
2023-08-30T09:16:30.850Z,98275.59
2023-08-30T09:21:33.187Z,98279.84
2023-08-30T09:24:07.883Z,98285.06
2023-08-30T09:26:40.276Z,98271.66
2023-08-30T09:29:08.318Z,98275.28
2023-08-30T09:31:41.640Z,98264.25
2023-08-30T09:34:09.183Z,98274.97
2023-08-30T09:36:40.319Z,98250.53
2023-08-30T09:39:12.265Z,98244.53
2023-08-30T09:41:44.455Z,98258.53
2023-08-30T09:44:14.678Z,98257.25
2023-08-30T09:46:51.509Z,98251.38
2023-08-30T09:49:24.819Z,98250.91
2023-08-30T09:51:54.528Z,98245.84
2023-08-30T09:54:38.276Z,98249.91
2023-08-30T09:57:07.402Z,98247.84
2023-08-30T09:59:35.400Z,98222.88
2023-08-30T10:02:03.077Z,98242.06
2023-08-30T10:04:31.206Z,98208.88
2023-08-30T10:06:59.785Z,98239.63
2023-08-30T10:09:27.119Z,98231.81
2023-08-30T10:11:54.626Z,98227.94
2023-08-30T10:14:21.492Z,98233.63
2023-08-30T10:16:49.803Z,98221.00
2023-08-30T10:19:27.685Z,98229.16
2023-08-30T10:22:06.168Z,98228.19
2023-08-30T10:25:02.853Z,98205.81
2023-08-30T10:27:38.063Z,98206.06
2023-08-30T10:30:08.374Z,98212.78
2023-08-30T10:32:46.887Z,98216.84
2023-08-30T10:35:16.141Z,98216.38
2023-08-30T10:37:43.600Z,98209.94
2023-08-30T10:40:12.513Z,98203.28
2023-08-30T10:42:39.616Z,98201.59
2023-08-30T10:45:13.731Z,98187.66
2023-08-30T10:47:42.142Z,98191.78
2023-08-30T10:50:13.432Z,98188.91
2023-08-30T10:52:40.247Z,98199.50
2023-08-30T10:55:12.492Z,98192.84
2023-08-30T10:57:43.641Z,98190.22
2023-08-30T11:00:11.006Z,98190.09
2023-08-30T11:02:39.173Z,98174.72
2023-08-30T11:05:10.477Z,98180.31
2023-08-30T11:07:37.868Z,98160.59
2023-08-30T11:10:07.553Z,98179.53
2023-08-30T11:12:34.898Z,98164.22
2023-08-30T11:15:02.439Z,98142.28
2023-08-30T11:17:30.049Z,98160.34
2023-08-30T11:20:25.042Z,98148.78
2023-08-30T11:22:53.192Z,98153.28
2023-08-30T11:25:20.454Z,98144.75
2023-08-30T11:27:48.738Z,98137.00
2023-08-30T11:30:15.786Z,98118.03
2023-08-30T11:32:46.903Z,98128.94
2023-08-30T11:35:13.921Z,98128.41
2023-08-30T11:37:42.352Z,98118.19
2023-08-30T11:40:12.454Z,98132.41
2023-08-30T11:42:39.934Z,98116.91
2023-08-30T11:45:08.192Z,98120.44
2023-08-30T11:47:35.795Z,98101.78
2023-08-30T11:50:03.159Z,98096.13
2023-08-30T11:52:30.766Z,98106.25
2023-08-30T11:54:58.017Z,98079.25
2023-08-30T11:57:27.282Z,98090.72
2023-08-30T11:59:54.554Z,98100.00
2023-08-30T12:02:23.265Z,98090.72
2023-08-30T12:04:51.997Z,98100.34
2023-08-30T12:07:26.663Z,98081.59
2023-08-30T12:10:04.921Z,98096.41
2023-08-30T12:12:32.290Z,98089.28
2023-08-30T12:14:59.500Z,98098.53
2023-08-30T12:17:26.844Z,98096.47
2023-08-30T12:20:00.526Z,98095.16
2023-08-30T12:22:43.710Z,98098.41
2023-08-30T12:25:59.046Z,98102.25
2023-08-30T12:28:32.875Z,98096.75
2023-08-30T12:31:01.982Z,98093.97
2023-08-30T12:33:32.581Z,98075.34
2023-08-30T12:35:59.669Z,98062.25
2023-08-30T12:38:26.967Z,98083.47
2023-08-30T12:40:56.645Z,98094.22
2023-08-30T12:43:24.906Z,98097.25
2023-08-30T12:45:52.289Z,98088.19
2023-08-30T12:48:19.922Z,98085.19
2023-08-30T12:50:50.350Z,98077.84
2023-08-30T12:53:20.398Z,98068.34
2023-08-30T12:55:47.536Z,98054.28
2023-08-30T12:58:15.317Z,98077.69
2023-08-30T13:00:42.706Z,98074.06
2023-08-30T13:03:10.290Z,98078.69
2023-08-30T13:05:38.013Z,98086.25
2023-08-30T13:08:05.234Z,98070.34
2023-08-30T13:10:33.384Z,98066.69
2023-08-30T13:13:00.498Z,98072.56
2023-08-30T13:15:27.904Z,98075.97
2023-08-30T13:17:54.995Z,98081.94
2023-08-30T13:20:22.358Z,98059.72
2023-08-30T13:22:49.642Z,98059.84
2023-08-30T13:25:16.905Z,98058.47
2023-08-30T13:27:43.807Z,98049.16
2023-08-30T13:30:11.530Z,98044.16
2023-08-30T13:32:38.756Z,98019.25
2023-08-30T13:35:06.364Z,98021.00
2023-08-30T13:37:33.317Z,98054.22
2023-08-30T13:40:00.346Z,98055.91
2023-08-30T13:42:27.552Z,98076.13
2023-08-30T13:44:54.635Z,98072.94
2023-08-30T13:47:21.915Z,98064.00
2023-08-30T13:49:49.014Z,98070.03
2023-08-30T13:52:16.972Z,98038.91
2023-08-30T13:54:44.944Z,98057.78
2023-08-30T13:57:12.280Z,98069.47
2023-08-30T13:59:39.360Z,98055.78
2023-08-30T14:02:06.599Z,98073.72
2023-08-30T14:04:34.279Z,98074.53
2023-08-30T14:07:01.487Z,98056.28
2023-08-30T14:09:29.246Z,98074.44
2023-08-30T14:11:57.032Z,98063.56
2023-08-30T14:14:24.233Z,98071.59
2023-08-30T14:16:51.354Z,98071.75
2023-08-30T14:19:18.454Z,98083.41
2023-08-30T14:21:45.791Z,98050.78
2023-08-30T14:24:13.256Z,98069.25
2023-08-30T14:26:40.587Z,98083.22
2023-08-30T14:29:07.647Z,98074.72
2023-08-30T14:31:34.606Z,98065.44
2023-08-30T14:34:01.761Z,98077.53
2023-08-30T14:36:28.975Z,98062.56
2023-08-30T14:38:55.864Z,98045.25
2023-08-30T14:41:22.995Z,98085.84
2023-08-30T14:43:50.038Z,98088.47
2023-08-30T14:46:22.472Z,98093.00
2023-08-30T14:48:50.402Z,98090.78
2023-08-30T14:51:17.450Z,98092.47
2023-08-30T14:53:44.380Z,98106.81
2023-08-30T14:56:12.969Z,98091.38
2023-08-30T14:58:40.794Z,98088.16
2023-08-30T15:01:11.001Z,98103.84
2023-08-30T15:03:38.399Z,98091.38
2023-08-30T15:06:05.448Z,98092.19
2023-08-30T15:08:32.666Z,98105.72
2023-08-30T15:10:59.956Z,98091.97
2023-08-30T15:13:27.353Z,98114.00
2023-08-30T15:15:54.881Z,98118.53
2023-08-30T15:18:21.817Z,98122.50
2023-08-30T15:20:50.299Z,98137.59
2023-08-30T15:23:20.113Z,98150.03
2023-08-30T15:25:48.055Z,98162.66
2023-08-30T15:28:15.823Z,98158.13
2023-08-30T15:30:44.531Z,98147.69
2023-08-30T15:33:12.302Z,98141.28
2023-08-30T15:35:40.625Z,98120.06
2023-08-30T15:38:10.984Z,98130.38
2023-08-30T15:40:38.538Z,98154.59
2023-08-30T15:43:07.327Z,98155.22
2023-08-30T15:45:35.186Z,98163.81
2023-08-30T15:48:02.295Z,98151.38
2023-08-30T15:50:29.349Z,98143.13
2023-08-30T15:52:56.397Z,98139.88
2023-08-30T15:55:23.855Z,98147.06
2023-08-30T15:57:50.707Z,98159.63
2023-08-30T16:00:18.340Z,98154.13
2023-08-30T16:02:45.541Z,98125.41
2023-08-30T16:05:12.525Z,98136.91
2023-08-30T16:07:39.682Z,98160.06
2023-08-30T16:10:08.839Z,98149.72
2023-08-30T16:12:35.981Z,98144.41
2023-08-30T16:15:03.274Z,98153.22
2023-08-30T16:17:30.298Z,98129.88
2023-08-30T16:19:59.479Z,98149.31
2023-08-30T16:22:26.946Z,98146.63
2023-08-30T16:24:53.946Z,98147.66
2023-08-30T16:27:20.993Z,98152.75
2023-08-30T16:29:47.971Z,98152.16
2023-08-30T16:32:14.843Z,98151.53
2023-08-30T16:34:42.454Z,98179.88
2023-08-30T16:37:09.649Z,98180.78
2023-08-30T16:39:36.822Z,98179.22
2023-08-30T16:42:04.084Z,98173.56
2023-08-30T16:44:31.312Z,98187.47
2023-08-30T16:46:58.236Z,98195.47
2023-08-30T16:49:25.234Z,98199.88
2023-08-30T16:51:53.745Z,98205.19
2023-08-30T16:54:20.838Z,98208.25
2023-08-30T16:56:48.108Z,98208.81
2023-08-30T16:59:15.512Z,98206.41
2023-08-30T17:01:45.766Z,98201.78
2023-08-30T17:04:15.145Z,98201.22
2023-08-30T17:06:44.241Z,98205.63
2023-08-30T17:09:11.369Z,98208.22
2023-08-30T17:11:41.303Z,98201.22
2023-08-30T17:14:12.107Z,98197.25
2023-08-30T17:16:40.060Z,98210.16
2023-08-30T17:19:07.294Z,98203.81
2023-08-30T17:21:34.692Z,98190.84
2023-08-30T17:24:01.634Z,98203.13
2023-08-30T17:26:28.629Z,98216.88
2023-08-30T17:28:55.487Z,98208.06
2023-08-30T17:31:25.986Z,98206.50
2023-08-30T17:33:53.191Z,98225.69
2023-08-30T17:36:20.460Z,98224.00
2023-08-30T17:38:48.755Z,98209.59
2023-08-30T17:41:15.780Z,98215.78
2023-08-30T17:43:42.630Z,98230.34
2023-08-30T17:46:09.736Z,98248.16
2023-08-30T17:48:36.874Z,98248.75
2023-08-30T17:51:07.024Z,98272.78
2023-08-30T17:53:35.168Z,98267.91
2023-08-30T17:56:02.867Z,98274.44
2023-08-30T17:58:29.981Z,98273.88
2023-08-30T18:00:59.730Z,98301.66
2023-08-30T18:03:30.647Z,98318.81
2023-08-30T18:06:02.219Z,98317.66
2023-08-30T18:08:29.083Z,98303.88
2023-08-30T18:10:56.329Z,98284.34
2023-08-30T18:13:29.949Z,98281.81
2023-08-30T18:15:57.906Z,98249.88
2023-08-30T18:18:24.822Z,98284.34
2023-08-30T18:20:51.775Z,98290.19
2023-08-30T18:23:19.121Z,98310.38
2023-08-30T18:25:46.088Z,98316.50
2023-08-30T18:28:14.162Z,98300.00
2023-08-30T18:30:42.148Z,98312.03
2023-08-30T18:33:09.331Z,98309.88
2023-08-30T18:35:36.760Z,98299.56
2023-08-30T18:38:04.663Z,98318.03
2023-08-30T18:40:31.594Z,98335.56
2023-08-30T18:42:59.164Z,98336.00
2023-08-30T18:45:26.123Z,98315.66
2023-08-30T18:47:53.577Z,98344.44
2023-08-30T18:50:20.829Z,98351.63
2023-08-30T18:52:48.008Z,98361.22
2023-08-30T18:55:15.363Z,98379.03
2023-08-30T18:57:42.392Z,98369.59
2023-08-30T19:00:11.681Z,98367.88
2023-08-30T19:02:39.142Z,98387.91
2023-08-30T19:05:07.712Z,98373.25
2023-08-30T19:07:34.891Z,98426.56
2023-08-30T19:10:01.940Z,98444.22
2023-08-30T19:12:29.061Z,98438.31
2023-08-30T19:14:56.177Z,98439.69
2023-08-30T19:17:23.458Z,98444.59
2023-08-30T19:19:50.384Z,98466.59
2023-08-30T19:22:20.831Z,98450.41
2023-08-30T19:24:49.286Z,98456.06
2023-08-30T19:27:17.932Z,98465.69
2023-08-30T19:29:47.607Z,98480.88
2023-08-30T19:32:14.924Z,98484.91
2023-08-30T19:34:41.893Z,98457.72
2023-08-30T19:37:09.197Z,98476.28
2023-08-30T19:39:36.345Z,98464.31
2023-08-30T19:42:04.292Z,98471.59
2023-08-30T19:44:31.277Z,98497.34
2023-08-30T19:47:00.950Z,98507.59
2023-08-30T19:49:34.912Z,98504.03
2023-08-30T19:52:02.078Z,98512.94
2023-08-30T19:54:34.278Z,98519.50
2023-08-30T19:57:08.077Z,98502.09
2023-08-30T19:59:35.684Z,98500.25
2023-08-30T20:02:18.712Z,98480.84
2023-08-30T20:04:45.796Z,98452.56
2023-08-30T20:07:24.933Z,98461.78
2023-08-30T20:09:52.036Z,98429.16
2023-08-30T20:12:32.533Z,98446.22
2023-08-30T20:15:05.986Z,98453.75
2023-08-30T20:17:33.221Z,98447.88
2023-08-30T20:20:00.777Z,98445.09
2023-08-30T20:22:27.694Z,98442.03
2023-08-30T20:24:56.215Z,98454.81
2023-08-30T20:27:23.681Z,98466.81
2023-08-30T20:29:50.839Z,98444.84
2023-08-30T20:32:18.724Z,98483.53
2023-08-30T20:34:46.178Z,98488.69
2023-08-30T20:37:12.995Z,98505.53
2023-08-30T20:39:40.374Z,98495.13
2023-08-30T20:42:07.769Z,98479.06
2023-08-30T20:44:34.696Z,98453.03
2023-08-30T20:47:01.976Z,98457.75
2023-08-30T20:49:28.846Z,98433.03
2023-08-30T20:51:56.076Z,98449.75
2023-08-30T20:54:22.900Z,98472.88
2023-08-30T20:56:50.503Z,98484.81
2023-08-30T20:59:17.557Z,98484.00
2023-08-30T21:01:45.156Z,98467.25
2023-08-30T21:04:12.172Z,98472.00
2023-08-30T21:06:39.157Z,98471.16
2023-08-30T21:09:06.551Z,98461.22
2023-08-30T21:11:33.655Z,98482.31
2023-08-30T21:14:01.398Z,98486.34
2023-08-30T21:16:28.455Z,98476.69
2023-08-30T21:18:55.794Z,98477.38
2023-08-30T21:21:22.738Z,98484.97
2023-08-30T21:23:49.843Z,98483.72
2023-08-30T21:26:16.669Z,98472.59
2023-08-30T21:28:43.884Z,98490.56
2023-08-30T21:31:11.044Z,98456.19
2023-08-30T21:33:38.197Z,98496.44
2023-08-30T21:36:05.482Z,98499.59
2023-08-30T21:38:32.515Z,98496.47
2023-08-30T21:40:59.660Z,98493.25
2023-08-30T21:43:27.010Z,98496.03
2023-08-30T21:45:54.162Z,98500.81
2023-08-30T21:48:21.814Z,98500.78
2023-08-30T21:50:51.072Z,98495.97
2023-08-30T21:53:19.740Z,98478.75
2023-08-30T21:55:46.942Z,98494.69
2023-08-30T21:58:14.555Z,98476.38
2023-08-30T22:00:41.503Z,98489.78
2023-08-30T22:03:08.945Z,98485.44
2023-08-30T22:05:36.324Z,98485.53
2023-08-30T22:08:03.804Z,98492.81
2023-08-30T22:10:31.688Z,98506.00
2023-08-30T22:12:59.008Z,98498.00
2023-08-30T22:15:26.147Z,98509.25
2023-08-30T22:17:53.412Z,98511.66
2023-08-30T22:20:21.509Z,98498.59
2023-08-30T22:22:49.076Z,98511.28
2023-08-30T22:25:16.661Z,98504.94
2023-08-30T22:27:44.757Z,98503.78
2023-08-30T22:30:13.542Z,98504.09
2023-08-30T22:32:40.629Z,98493.72
2023-08-30T22:35:11.861Z,98514.00
2023-08-30T22:37:39.144Z,98513.25
2023-08-30T22:40:09.764Z,98496.50
2023-08-30T22:42:39.390Z,98499.19
2023-08-30T22:45:08.371Z,98496.38
2023-08-30T22:47:35.896Z,98501.53
2023-08-30T22:50:03.461Z,98478.03
2023-08-30T22:52:30.629Z,98501.19
2023-08-30T22:54:58.282Z,98499.59
2023-08-30T22:57:25.230Z,98484.53
2023-08-30T22:59:52.281Z,98511.97
2023-08-30T23:02:19.192Z,98507.47
2023-08-30T23:04:47.130Z,98513.88
2023-08-30T23:07:14.878Z,98519.50
2023-08-30T23:09:41.989Z,98518.00
2023-08-30T23:12:09.558Z,98518.88
2023-08-30T23:14:37.076Z,98520.84
2023-08-30T23:17:04.616Z,98524.34
2023-08-30T23:19:31.454Z,98509.25
2023-08-30T23:21:58.639Z,98510.81
2023-08-30T23:24:25.870Z,98514.44
2023-08-30T23:26:53.249Z,98515.31
2023-08-30T23:29:25.896Z,98508.50
2023-08-30T23:31:56.299Z,98511.78
2023-08-30T23:34:24.332Z,98491.91
2023-08-30T23:36:51.361Z,98511.41
2023-08-30T23:39:18.308Z,98511.03
2023-08-30T23:41:45.687Z,98521.41
2023-08-30T23:44:12.784Z,98537.44
2023-08-30T23:46:39.870Z,98547.19
2023-08-30T23:49:06.741Z,98573.13
2023-08-30T23:51:33.994Z,98526.38
2023-08-30T23:54:00.842Z,98539.50
2023-08-30T23:56:27.700Z,98567.16
2023-08-30T23:58:54.753Z,98567.94
